sensor_id;sensor_type;location;lat;lon;timestamp;pressure;altitude;pressure_sealevel;temperature;humidity
64792;BME280;51226;47.504;19.074;2023-03-01T00:02:19;101333.94;;;6.05;52.11
64792;BME280;51226;47.504;19.074;2023-03-01T00:05:22;101336.19;;;6.00;52.18
64792;BME280;51226;47.504;19.074;2023-03-01T00:08:25;101331.22;;;6.03;52.26
64792;BME280;51226;47.504;19.074;2023-03-01T00:11:31;101326.94;;;5.92;52.67
64792;BME280;51226;47.504;19.074;2023-03-01T00:14:35;101332.59;;;5.98;52.49
64792;BME280;51226;47.504;19.074;2023-03-01T00:17:38;101329.19;;;5.99;52.27
64792;BME280;51226;47.504;19.074;2023-03-01T00:20:41;101340.38;;;5.98;52.30
64792;BME280;51226;47.504;19.074;2023-03-01T00:23:44;101336.75;;;5.96;52.43
64792;BME280;51226;47.504;19.074;2023-03-01T00:26:46;101343.16;;;6.01;52.29
64792;BME280;51226;47.504;19.074;2023-03-01T00:29:50;101344.28;;;6.05;52.17
64792;BME280;51226;47.504;19.074;2023-03-01T00:32:52;101342.34;;;5.90;52.71
64792;BME280;51226;47.504;19.074;2023-03-01T00:35:58;101344.94;;;5.90;52.89
64792;BME280;51226;47.504;19.074;2023-03-01T00:39:01;101352.72;;;6.02;52.36
64792;BME280;51226;47.504;19.074;2023-03-01T00:42:05;101346.28;;;6.09;52.14
64792;BME280;51226;47.504;19.074;2023-03-01T00:45:09;101350.47;;;5.95;52.57
64792;BME280;51226;47.504;19.074;2023-03-01T00:48:12;101352.37;;;5.86;53.00
64792;BME280;51226;47.504;19.074;2023-03-01T00:51:26;101338.41;;;5.84;53.15
64792;BME280;51226;47.504;19.074;2023-03-01T00:54:31;101346.19;;;5.84;52.87
64792;BME280;51226;47.504;19.074;2023-03-01T00:57:34;101351.59;;;5.87;52.75
64792;BME280;51226;47.504;19.074;2023-03-01T01:00:37;101346.66;;;6.02;51.88
64792;BME280;51226;47.504;19.074;2023-03-01T01:03:40;101343.59;;;5.96;52.26
64792;BME280;51226;47.504;19.074;2023-03-01T01:06:45;101345.94;;;5.92;52.21
64792;BME280;51226;47.504;19.074;2023-03-01T01:09:48;101342.47;;;6.04;51.92
64792;BME280;51226;47.504;19.074;2023-03-01T01:12:52;101341.34;;;5.88;52.52
64792;BME280;51226;47.504;19.074;2023-03-01T01:15:54;101339.53;;;5.87;52.54
64792;BME280;51226;47.504;19.074;2023-03-01T01:19:03;101329.09;;;5.98;52.24
64792;BME280;51226;47.504;19.074;2023-03-01T01:22:06;101329.28;;;5.89;52.43
64792;BME280;51226;47.504;19.074;2023-03-01T01:25:09;101325.59;;;5.85;52.43
64792;BME280;51226;47.504;19.074;2023-03-01T01:28:12;101317.94;;;5.87;52.31
64792;BME280;51226;47.504;19.074;2023-03-01T01:31:16;101310.19;;;5.87;52.44
64792;BME280;51226;47.504;19.074;2023-03-01T01:34:20;101297.66;;;5.93;52.04
64792;BME280;51226;47.504;19.074;2023-03-01T01:37:24;101295.53;;;5.87;52.23
64792;BME280;51226;47.504;19.074;2023-03-01T01:40:33;101303.28;;;5.87;52.32
64792;BME280;51226;47.504;19.074;2023-03-01T01:43:39;101299.00;;;6.00;51.99
64792;BME280;51226;47.504;19.074;2023-03-01T01:46:47;101296.53;;;6.01;51.82
64792;BME280;51226;47.504;19.074;2023-03-01T01:49:56;101291.81;;;5.84;52.40
64792;BME280;51226;47.504;19.074;2023-03-01T01:52:59;101291.69;;;5.94;52.03
64792;BME280;51226;47.504;19.074;2023-03-01T01:56:03;101286.97;;;5.88;52.34
64792;BME280;51226;47.504;19.074;2023-03-01T01:59:09;101281.59;;;5.97;52.03
64792;BME280;51226;47.504;19.074;2023-03-01T02:02:13;101274.25;;;5.91;52.28
64792;BME280;51226;47.504;19.074;2023-03-01T02:08:37;101272.00;;;5.96;52.21
64792;BME280;51226;47.504;19.074;2023-03-01T02:11:41;101277.19;;;5.84;53.00
64792;BME280;51226;47.504;19.074;2023-03-01T02:14:46;101272.78;;;5.95;52.55
64792;BME280;51226;47.504;19.074;2023-03-01T02:17:49;101271.34;;;5.99;52.33
64792;BME280;51226;47.504;19.074;2023-03-01T02:24:25;101274.66;;;6.09;51.90
64792;BME280;51226;47.504;19.074;2023-03-01T02:30:54;101265.47;;;6.01;52.19
64792;BME280;51226;47.504;19.074;2023-03-01T02:34:18;101261.66;;;5.96;52.22
64792;BME280;51226;47.504;19.074;2023-03-01T02:37:23;101260.41;;;5.91;52.60
64792;BME280;51226;47.504;19.074;2023-03-01T02:40:29;101257.41;;;5.97;52.34
64792;BME280;51226;47.504;19.074;2023-03-01T02:43:34;101261.97;;;6.01;52.39
64792;BME280;51226;47.504;19.074;2023-03-01T02:46:47;101257.41;;;5.85;53.45
64792;BME280;51226;47.504;19.074;2023-03-01T02:49:50;101254.53;;;6.05;53.24
64792;BME280;51226;47.504;19.074;2023-03-01T02:56:03;101243.19;;;5.80;54.53
64792;BME280;51226;47.504;19.074;2023-03-01T02:59:06;101245.88;;;5.93;53.80
64792;BME280;51226;47.504;19.074;2023-03-01T03:02:21;101232.91;;;5.93;53.93
64792;BME280;51226;47.504;19.074;2023-03-01T03:05:38;101235.66;;;5.83;54.31
64792;BME280;51226;47.504;19.074;2023-03-01T03:08:41;101238.25;;;5.83;54.43
64792;BME280;51226;47.504;19.074;2023-03-01T03:11:45;101245.44;;;5.99;54.27
64792;BME280;51226;47.504;19.074;2023-03-01T03:14:48;101248.25;;;5.90;54.32
64792;BME280;51226;47.504;19.074;2023-03-01T03:17:52;101242.28;;;5.91;54.20
64792;BME280;51226;47.504;19.074;2023-03-01T03:20:55;101241.41;;;5.79;54.74
64792;BME280;51226;47.504;19.074;2023-03-01T03:23:58;101236.81;;;5.74;55.02
64792;BME280;51226;47.504;19.074;2023-03-01T03:27:01;101237.91;;;5.90;54.60
64792;BME280;51226;47.504;19.074;2023-03-01T03:30:07;101229.69;;;5.84;54.64
64792;BME280;51226;47.504;19.074;2023-03-01T03:33:14;101225.09;;;5.80;55.04
64792;BME280;51226;47.504;19.074;2023-03-01T03:36:19;101222.38;;;5.90;54.98
64792;BME280;51226;47.504;19.074;2023-03-01T03:39:23;101230.16;;;5.90;55.02
64792;BME280;51226;47.504;19.074;2023-03-01T03:42:26;101227.44;;;5.88;55.25
64792;BME280;51226;47.504;19.074;2023-03-01T03:45:29;101233.03;;;6.06;54.65
64792;BME280;51226;47.504;19.074;2023-03-01T03:48:38;101236.97;;;6.01;54.54
64792;BME280;51226;47.504;19.074;2023-03-01T03:51:41;101232.50;;;5.99;54.46
64792;BME280;51226;47.504;19.074;2023-03-01T03:54:44;101238.47;;;5.86;54.88
64792;BME280;51226;47.504;19.074;2023-03-01T03:57:48;101231.72;;;5.76;54.96
64792;BME280;51226;47.504;19.074;2023-03-01T04:00:56;101229.72;;;5.72;55.22
64792;BME280;51226;47.504;19.074;2023-03-01T04:03:59;101230.72;;;5.74;55.09
64792;BME280;51226;47.504;19.074;2023-03-01T04:07:06;101231.06;;;5.79;54.98
64792;BME280;51226;47.504;19.074;2023-03-01T04:10:12;101235.81;;;5.72;55.13
64792;BME280;51226;47.504;19.074;2023-03-01T04:13:18;101228.72;;;5.70;55.01
64792;BME280;51226;47.504;19.074;2023-03-01T04:16:25;101229.72;;;5.72;54.95
64792;BME280;51226;47.504;19.074;2023-03-01T04:19:28;101234.22;;;5.74;54.80
64792;BME280;51226;47.504;19.074;2023-03-01T04:22:31;101236.09;;;5.89;54.37
64792;BME280;51226;47.504;19.074;2023-03-01T04:25:34;101236.87;;;5.88;54.24
64792;BME280;51226;47.504;19.074;2023-03-01T04:28:39;101228.34;;;5.89;54.14
64792;BME280;51226;47.504;19.074;2023-03-01T04:31:45;101227.47;;;5.77;54.59
64792;BME280;51226;47.504;19.074;2023-03-01T04:34:48;101234.31;;;5.76;54.74
64792;BME280;51226;47.504;19.074;2023-03-01T04:37:51;101235.56;;;5.69;54.95
64792;BME280;51226;47.504;19.074;2023-03-01T04:40:54;101237.16;;;5.67;55.01
64792;BME280;51226;47.504;19.074;2023-03-01T04:43:56;101236.38;;;5.68;54.93
64792;BME280;51226;47.504;19.074;2023-03-01T04:47:02;101233.06;;;5.83;55.15
64792;BME280;51226;47.504;19.074;2023-03-01T04:50:06;101229.44;;;5.92;54.31
64792;BME280;51226;47.504;19.074;2023-03-01T04:53:09;101228.47;;;5.79;54.63
64792;BME280;51226;47.504;19.074;2023-03-01T04:56:12;101222.72;;;5.83;54.63
64792;BME280;51226;47.504;19.074;2023-03-01T04:59:16;101219.91;;;5.80;54.56
64792;BME280;51226;47.504;19.074;2023-03-01T05:02:19;101212.84;;;5.77;54.72
64792;BME280;51226;47.504;19.074;2023-03-01T05:08:28;101219.13;;;5.81;54.75
64792;BME280;51226;47.504;19.074;2023-03-01T05:11:31;101220.97;;;5.70;55.23
64792;BME280;51226;47.504;19.074;2023-03-01T05:14:38;101215.47;;;5.65;55.38
64792;BME280;51226;47.504;19.074;2023-03-01T05:17:41;101215.22;;;5.74;55.25
64792;BME280;51226;47.504;19.074;2023-03-01T05:20:44;101219.06;;;5.67;55.58
64792;BME280;51226;47.504;19.074;2023-03-01T05:23:47;101217.13;;;5.77;55.31
64792;BME280;51226;47.504;19.074;2023-03-01T05:26:50;101220.28;;;5.72;55.47
64792;BME280;51226;47.504;19.074;2023-03-01T05:29:56;101218.25;;;5.80;55.23
64792;BME280;51226;47.504;19.074;2023-03-01T05:32:59;101226.94;;;5.69;55.71
64792;BME280;51226;47.504;19.074;2023-03-01T05:36:03;101226.69;;;5.66;55.94
64792;BME280;51226;47.504;19.074;2023-03-01T05:39:06;101227.19;;;5.60;56.24
64792;BME280;51226;47.504;19.074;2023-03-01T05:42:10;101223.59;;;5.58;56.36
64792;BME280;51226;47.504;19.074;2023-03-01T05:45:14;101225.00;;;5.78;55.70
64792;BME280;51226;47.504;19.074;2023-03-01T05:48:17;101236.03;;;5.75;55.75
64792;BME280;51226;47.504;19.074;2023-03-01T05:51:22;101242.19;;;5.78;55.71
64792;BME280;51226;47.504;19.074;2023-03-01T05:54:25;101241.28;;;5.89;55.70
64792;BME280;51226;47.504;19.074;2023-03-01T05:57:28;101239.34;;;5.86;55.95
64792;BME280;51226;47.504;19.074;2023-03-01T06:00:32;101238.03;;;5.80;55.71
64792;BME280;51226;47.504;19.074;2023-03-01T06:03:35;101233.91;;;5.70;56.04
64792;BME280;51226;47.504;19.074;2023-03-01T06:06:38;101242.69;;;5.72;56.13
64792;BME280;51226;47.504;19.074;2023-03-01T06:09:41;101243.78;;;5.75;55.97
64792;BME280;51226;47.504;19.074;2023-03-01T06:12:44;101241.97;;;5.74;56.04
64792;BME280;51226;47.504;19.074;2023-03-01T06:15:47;101245.59;;;5.77;56.00
64792;BME280;51226;47.504;19.074;2023-03-01T06:18:50;101240.19;;;5.73;56.66
64792;BME280;51226;47.504;19.074;2023-03-01T06:21:53;101248.19;;;5.77;56.98
64792;BME280;51226;47.504;19.074;2023-03-01T06:24:55;101251.28;;;5.84;56.36
64792;BME280;51226;47.504;19.074;2023-03-01T06:27:59;101248.59;;;5.83;56.22
64792;BME280;51226;47.504;19.074;2023-03-01T06:31:01;101245.47;;;5.87;56.09
64792;BME280;51226;47.504;19.074;2023-03-01T06:34:05;101247.94;;;5.85;56.40
64792;BME280;51226;47.504;19.074;2023-03-01T06:37:08;101256.03;;;5.90;56.12
64792;BME280;51226;47.504;19.074;2023-03-01T06:40:11;101254.66;;;5.95;56.06
64792;BME280;51226;47.504;19.074;2023-03-01T06:43:15;101257.13;;;6.05;55.68
64792;BME280;51226;47.504;19.074;2023-03-01T06:46:18;101257.97;;;6.18;55.22
64792;BME280;51226;47.504;19.074;2023-03-01T06:49:21;101275.78;;;6.13;55.46
64792;BME280;51226;47.504;19.074;2023-03-01T06:52:24;101266.34;;;6.14;55.50
64792;BME280;51226;47.504;19.074;2023-03-01T06:55:27;101272.81;;;6.32;54.73
64792;BME280;51226;47.504;19.074;2023-03-01T06:58:30;101274.13;;;6.39;54.34
64792;BME280;51226;47.504;19.074;2023-03-01T07:01:34;101265.25;;;6.35;54.41
64792;BME280;51226;47.504;19.074;2023-03-01T07:04:38;101268.78;;;6.24;54.97
64792;BME280;51226;47.504;19.074;2023-03-01T07:07:40;101266.91;;;6.35;54.60
64792;BME280;51226;47.504;19.074;2023-03-01T07:10:44;101274.28;;;6.28;54.82
64792;BME280;51226;47.504;19.074;2023-03-01T07:13:46;101267.03;;;6.36;54.48
64792;BME280;51226;47.504;19.074;2023-03-01T07:16:50;101264.09;;;6.43;54.46
64792;BME280;51226;47.504;19.074;2023-03-01T07:19:52;101263.09;;;6.55;54.15
64792;BME280;51226;47.504;19.074;2023-03-01T07:22:55;101255.75;;;6.61;53.74
64792;BME280;51226;47.504;19.074;2023-03-01T07:26:00;101263.16;;;6.68;53.53
64792;BME280;51226;47.504;19.074;2023-03-01T07:29:06;101251.81;;;6.79;53.00
64792;BME280;51226;47.504;19.074;2023-03-01T07:32:09;101258.62;;;6.91;52.65
64792;BME280;51226;47.504;19.074;2023-03-01T07:35:13;101252.34;;;7.00;52.61
64792;BME280;51226;47.504;19.074;2023-03-01T07:38:17;101253.56;;;7.05;52.58
64792;BME280;51226;47.504;19.074;2023-03-01T07:41:20;101263.13;;;7.07;52.89
64792;BME280;51226;47.504;19.074;2023-03-01T07:44:22;101259.75;;;7.08;52.85
64792;BME280;51226;47.504;19.074;2023-03-01T07:47:25;101249.88;;;7.15;52.30
64792;BME280;51226;47.504;19.074;2023-03-01T07:50:28;101250.25;;;7.35;52.21
64792;BME280;51226;47.504;19.074;2023-03-01T07:53:32;101260.47;;;7.45;51.27
64792;BME280;51226;47.504;19.074;2023-03-01T07:56:36;101243.19;;;7.46;51.65
64792;BME280;51226;47.504;19.074;2023-03-01T07:59:39;101241.69;;;7.49;51.42
64792;BME280;51226;47.504;19.074;2023-03-01T08:02:41;101237.09;;;7.58;51.37
64792;BME280;51226;47.504;19.074;2023-03-01T08:05:45;101239.16;;;7.64;50.88
64792;BME280;51226;47.504;19.074;2023-03-01T08:08:47;101242.94;;;7.69;50.64
64792;BME280;51226;47.504;19.074;2023-03-01T08:11:50;101237.59;;;7.94;49.56
64792;BME280;51226;47.504;19.074;2023-03-01T08:14:54;101243.19;;;8.01;49.60
64792;BME280;51226;47.504;19.074;2023-03-01T08:17:57;101242.56;;;8.05;49.23
64792;BME280;51226;47.504;19.074;2023-03-01T08:21:07;101242.22;;;8.13;48.95
64792;BME280;51226;47.504;19.074;2023-03-01T08:24:11;101233.37;;;8.25;48.46
64792;BME280;51226;47.504;19.074;2023-03-01T08:27:15;101228.56;;;8.31;48.74
64792;BME280;51226;47.504;19.074;2023-03-01T08:30:19;101222.63;;;8.62;47.29
64792;BME280;51226;47.504;19.074;2023-03-01T08:33:22;101222.72;;;8.93;46.29
64792;BME280;51226;47.504;19.074;2023-03-01T08:36:29;101215.56;;;9.04;45.70
64792;BME280;51226;47.504;19.074;2023-03-01T08:39:32;101208.12;;;9.41;44.71
64792;BME280;51226;47.504;19.074;2023-03-01T08:42:36;101210.19;;;10.11;43.53
64792;BME280;51226;47.504;19.074;2023-03-01T08:45:39;101212.31;;;10.35;43.53
64792;BME280;51226;47.504;19.074;2023-03-01T08:48:42;101208.31;;;10.42;43.06
64792;BME280;51226;47.504;19.074;2023-03-01T08:51:46;101201.09;;;10.36;43.00
64792;BME280;51226;47.504;19.074;2023-03-01T08:54:49;101195.25;;;10.58;41.90
64792;BME280;51226;47.504;19.074;2023-03-01T08:57:52;101201.22;;;10.73;42.11
64792;BME280;51226;47.504;19.074;2023-03-01T09:00:55;101192.63;;;11.28;41.43
64792;BME280;51226;47.504;19.074;2023-03-01T09:04:00;101189.34;;;12.27;39.46
64792;BME280;51226;47.504;19.074;2023-03-01T09:07:03;101183.78;;;14.15;35.54
64792;BME280;51226;47.504;19.074;2023-03-01T09:10:06;101188.44;;;14.72;34.16
64792;BME280;51226;47.504;19.074;2023-03-01T09:13:10;101183.28;;;14.25;34.83
64792;BME280;51226;47.504;19.074;2023-03-01T09:16:17;101179.72;;;14.49;34.76
64792;BME280;51226;47.504;19.074;2023-03-01T09:19:22;101174.94;;;14.87;33.85
64792;BME280;51226;47.504;19.074;2023-03-01T09:22:26;101173.78;;;14.79;33.74
64792;BME280;51226;47.504;19.074;2023-03-01T09:25:29;101168.69;;;14.34;35.26
64792;BME280;51226;47.504;19.074;2023-03-01T09:28:32;101167.69;;;14.06;35.40
64792;BME280;51226;47.504;19.074;2023-03-01T09:31:35;101148.13;;;14.46;35.25
64792;BME280;51226;47.504;19.074;2023-03-01T09:34:37;101153.66;;;15.07;33.74
64792;BME280;51226;47.504;19.074;2023-03-01T09:38:00;101144.38;;;15.47;33.14
64792;BME280;51226;47.504;19.074;2023-03-01T09:41:10;101146.84;;;15.71;32.88
64792;BME280;51226;47.504;19.074;2023-03-01T09:47:40;101122.41;;;16.37;32.31
64792;BME280;51226;47.504;19.074;2023-03-01T09:50:45;101127.63;;;17.04;30.31
64792;BME280;51226;47.504;19.074;2023-03-01T09:53:50;101120.09;;;17.21;30.50
64792;BME280;51226;47.504;19.074;2023-03-01T09:57:03;101117.69;;;17.32;30.25
64792;BME280;51226;47.504;19.074;2023-03-01T10:00:20;101116.34;;;17.52;30.72
64792;BME280;51226;47.504;19.074;2023-03-01T10:13:46;101111.87;;;18.87;27.77
64792;BME280;51226;47.504;19.074;2023-03-01T10:16:58;101102.47;;;19.07;27.69
64792;BME280;51226;47.504;19.074;2023-03-01T10:23:26;101093.66;;;19.74;26.82
64792;BME280;51226;47.504;19.074;2023-03-01T10:26:41;101077.34;;;20.12;26.51
64792;BME280;51226;47.504;19.074;2023-03-01T10:33:37;101074.84;;;20.31;26.47
64792;BME280;51226;47.504;19.074;2023-03-01T10:36:48;101059.81;;;20.27;26.01
64792;BME280;51226;47.504;19.074;2023-03-01T10:40:05;101064.41;;;20.49;25.87
64792;BME280;51226;47.504;19.074;2023-03-01T10:43:12;101047.84;;;20.70;25.41
64792;BME280;51226;47.504;19.074;2023-03-01T10:46:32;101044.19;;;20.59;26.20
64792;BME280;51226;47.504;19.074;2023-03-01T10:49:35;101045.22;;;20.75;25.35
64792;BME280;51226;47.504;19.074;2023-03-01T10:52:41;101034.72;;;20.90;25.36
64792;BME280;51226;47.504;19.074;2023-03-01T10:55:44;101029.47;;;20.98;24.83
64792;BME280;51226;47.504;19.074;2023-03-01T11:08:29;101015.25;;;20.88;25.64
64792;BME280;51226;47.504;19.074;2023-03-01T11:11:36;101018.03;;;21.10;25.13
64792;BME280;51226;47.504;19.074;2023-03-01T11:14:49;101012.38;;;20.59;25.80
64792;BME280;51226;47.504;19.074;2023-03-01T11:17:53;101007.66;;;20.18;25.93
64792;BME280;51226;47.504;19.074;2023-03-01T11:21:11;101005.69;;;19.97;26.20
64792;BME280;51226;47.504;19.074;2023-03-01T11:24:15;101002.75;;;19.72;26.51
64792;BME280;51226;47.504;19.074;2023-03-01T11:27:31;100994.94;;;19.78;26.57
64792;BME280;51226;47.504;19.074;2023-03-01T11:30:41;100993.22;;;19.84;26.56
64792;BME280;51226;47.504;19.074;2023-03-01T11:34:19;100988.81;;;19.87;28.02
64792;BME280;51226;47.504;19.074;2023-03-01T11:40:47;100983.69;;;20.06;26.30
64792;BME280;51226;47.504;19.074;2023-03-01T11:44:03;100989.31;;;20.47;25.50
64792;BME280;51226;47.504;19.074;2023-03-01T11:50:41;100981.59;;;20.81;24.80
64792;BME280;51226;47.504;19.074;2023-03-01T11:57:22;100978.03;;;20.76;25.77
64792;BME280;51226;47.504;19.074;2023-03-01T12:11:00;100970.16;;;18.39;27.80
64792;BME280;51226;47.504;19.074;2023-03-01T12:20:56;100954.59;;;16.68;30.62
64792;BME280;51226;47.504;19.074;2023-03-01T12:51:00;100918.09;;;16.06;32.32
64792;BME280;51226;47.504;19.074;2023-03-01T12:54:15;100917.47;;;16.18;32.56
64792;BME280;51226;47.504;19.074;2023-03-01T12:57:38;100917.81;;;16.32;31.75
64792;BME280;51226;47.504;19.074;2023-03-01T13:01:03;100914.78;;;16.53;31.66
64792;BME280;51226;47.504;19.074;2023-03-01T13:13:32;100913.50;;;16.35;33.33
64792;BME280;51226;47.504;19.074;2023-03-01T13:16:40;100911.00;;;16.03;33.15
64792;BME280;51226;47.504;19.074;2023-03-01T13:19:58;100907.53;;;15.71;33.78
64792;BME280;51226;47.504;19.074;2023-03-01T13:26:21;100906.81;;;15.43;34.43
64792;BME280;51226;47.504;19.074;2023-03-01T13:29:26;100897.66;;;15.61;34.15
64792;BME280;51226;47.504;19.074;2023-03-01T13:32:32;100884.31;;;15.88;33.47
64792;BME280;51226;47.504;19.074;2023-03-01T13:35:46;100881.22;;;16.04;33.72
64792;BME280;51226;47.504;19.074;2023-03-01T13:38:57;100876.66;;;16.37;33.18
64792;BME280;51226;47.504;19.074;2023-03-01T13:45:37;100879.47;;;17.30;32.31
64792;BME280;51226;47.504;19.074;2023-03-01T13:48:43;100880.78;;;17.53;31.21
64792;BME280;51226;47.504;19.074;2023-03-01T13:51:48;100866.88;;;17.64;31.72
64792;BME280;51226;47.504;19.074;2023-03-01T13:54:52;100866.03;;;17.65;31.16
64792;BME280;51226;47.504;19.074;2023-03-01T13:58:01;100854.37;;;17.52;30.92
64792;BME280;51226;47.504;19.074;2023-03-01T14:01:18;100855.88;;;17.39;31.38
64792;BME280;51226;47.504;19.074;2023-03-01T14:04:26;100851.97;;;17.15;31.80
64792;BME280;51226;47.504;19.074;2023-03-01T14:07:29;100843.50;;;16.86;32.12
64792;BME280;51226;47.504;19.074;2023-03-01T14:10:42;100849.25;;;16.68;32.55
64792;BME280;51226;47.504;19.074;2023-03-01T14:20:22;100824.88;;;15.96;33.71
64792;BME280;51226;47.504;19.074;2023-03-01T14:23:26;100831.50;;;15.79;34.11
64792;BME280;51226;47.504;19.074;2023-03-01T14:26:29;100819.22;;;15.44;34.59
64792;BME280;51226;47.504;19.074;2023-03-01T14:29:36;100820.59;;;15.30;35.04
64792;BME280;51226;47.504;19.074;2023-03-01T14:32:39;100819.13;;;15.06;35.90
64792;BME280;51226;47.504;19.074;2023-03-01T14:35:55;100816.81;;;14.85;36.39
64792;BME280;51226;47.504;19.074;2023-03-01T14:38:58;100810.16;;;14.66;36.98
64792;BME280;51226;47.504;19.074;2023-03-01T14:42:07;100806.91;;;14.46;37.30
64792;BME280;51226;47.504;19.074;2023-03-01T14:45:17;100801.00;;;14.23;37.57
64792;BME280;51226;47.504;19.074;2023-03-01T14:48:21;100796.78;;;13.99;37.81
64792;BME280;51226;47.504;19.074;2023-03-01T14:51:23;100809.22;;;13.78;39.00
64792;BME280;51226;47.504;19.074;2023-03-01T14:54:41;100788.59;;;13.61;39.08
64792;BME280;51226;47.504;19.074;2023-03-01T14:57:47;100803.88;;;13.47;39.41
64792;BME280;51226;47.504;19.074;2023-03-01T15:00:53;100800.78;;;13.32;39.72
64792;BME280;51226;47.504;19.074;2023-03-01T15:03:57;100795.88;;;13.17;39.64
64792;BME280;51226;47.504;19.074;2023-03-01T15:07:01;100796.44;;;13.08;40.67
64792;BME280;51226;47.504;19.074;2023-03-01T15:10:17;100788.78;;;12.89;41.04
64792;BME280;51226;47.504;19.074;2023-03-01T15:13:24;100797.09;;;12.77;40.89
64792;BME280;51226;47.504;19.074;2023-03-01T15:16:30;100790.63;;;12.67;40.94
64792;BME280;51226;47.504;19.074;2023-03-01T15:19:35;100787.84;;;12.63;41.19
64792;BME280;51226;47.504;19.074;2023-03-01T15:22:37;100790.59;;;12.66;41.05
64792;BME280;51226;47.504;19.074;2023-03-01T15:25:44;100800.31;;;12.46;42.00
64792;BME280;51226;47.504;19.074;2023-03-01T15:28:50;100797.06;;;12.29;43.11
64792;BME280;51226;47.504;19.074;2023-03-01T15:32:03;100793.09;;;12.16;42.97
64792;BME280;51226;47.504;19.074;2023-03-01T15:35:32;100792.41;;;12.20;42.81
64792;BME280;51226;47.504;19.074;2023-03-01T15:38:52;100786.47;;;12.01;43.46
64792;BME280;51226;47.504;19.074;2023-03-01T15:41:57;100785.34;;;11.95;43.43
64792;BME280;51226;47.504;19.074;2023-03-01T15:48:19;100791.59;;;11.77;44.62
64792;BME280;51226;47.504;19.074;2023-03-01T15:51:34;100796.28;;;11.86;43.73
64792;BME280;51226;47.504;19.074;2023-03-01T15:54:39;100798.09;;;11.66;44.60
64792;BME280;51226;47.504;19.074;2023-03-01T15:57:43;100789.19;;;11.61;43.89
64792;BME280;51226;47.504;19.074;2023-03-01T16:00:46;100796.34;;;11.44;45.44
64792;BME280;51226;47.504;19.074;2023-03-01T16:04:02;100795.84;;;11.31;45.65
64792;BME280;51226;47.504;19.074;2023-03-01T16:07:05;100795.56;;;11.25;45.66
64792;BME280;51226;47.504;19.074;2023-03-01T16:10:09;100805.75;;;11.19;45.38
64792;BME280;51226;47.504;19.074;2023-03-01T16:13:12;100803.03;;;11.16;45.17
64792;BME280;51226;47.504;19.074;2023-03-01T16:16:16;100802.91;;;11.13;45.55
64792;BME280;51226;47.504;19.074;2023-03-01T16:19:19;100804.28;;;11.05;45.03
64792;BME280;51226;47.504;19.074;2023-03-01T16:22:22;100811.03;;;11.00;45.35
64792;BME280;51226;47.504;19.074;2023-03-01T16:25:28;100805.53;;;10.93;45.91
64792;BME280;51226;47.504;19.074;2023-03-01T16:28:32;100808.09;;;10.92;45.62
64792;BME280;51226;47.504;19.074;2023-03-01T16:31:34;100812.06;;;10.84;46.24
64792;BME280;51226;47.504;19.074;2023-03-01T16:34:38;100812.63;;;10.77;46.83
64792;BME280;51226;47.504;19.074;2023-03-01T16:37:41;100819.31;;;10.70;46.46
64792;BME280;51226;47.504;19.074;2023-03-01T16:40:50;100824.25;;;10.64;46.65
64792;BME280;51226;47.504;19.074;2023-03-01T16:43:52;100826.59;;;10.57;47.24
64792;BME280;51226;47.504;19.074;2023-03-01T16:46:56;100827.03;;;10.49;47.08
64792;BME280;51226;47.504;19.074;2023-03-01T16:49:58;100832.88;;;10.43;47.29
64792;BME280;51226;47.504;19.074;2023-03-01T16:53:02;100831.78;;;10.38;47.65
64792;BME280;51226;47.504;19.074;2023-03-01T16:56:08;100838.50;;;10.33;48.95
64792;BME280;51226;47.504;19.074;2023-03-01T16:59:12;100831.62;;;10.35;47.31
64792;BME280;51226;47.504;19.074;2023-03-01T17:02:14;100838.19;;;10.27;48.29
64792;BME280;51226;47.504;19.074;2023-03-01T17:05:22;100846.69;;;10.23;47.99
64792;BME280;51226;47.504;19.074;2023-03-01T17:08:26;100844.59;;;10.15;48.23
64792;BME280;51226;47.504;19.074;2023-03-01T17:11:30;100841.72;;;10.09;48.57
64792;BME280;51226;47.504;19.074;2023-03-01T17:14:33;100851.94;;;10.05;48.92
64792;BME280;51226;47.504;19.074;2023-03-01T17:17:36;100854.22;;;9.98;49.10
64792;BME280;51226;47.504;19.074;2023-03-01T17:20:38;100844.41;;;9.93;49.18
64792;BME280;51226;47.504;19.074;2023-03-01T17:23:43;100854.69;;;9.90;49.13
64792;BME280;51226;47.504;19.074;2023-03-01T17:26:46;100849.31;;;9.87;49.42
64792;BME280;51226;47.504;19.074;2023-03-01T17:29:50;100856.03;;;9.81;49.35
64792;BME280;51226;47.504;19.074;2023-03-01T17:32:52;100851.50;;;9.77;49.38
64792;BME280;51226;47.504;19.074;2023-03-01T17:35:58;100854.75;;;9.73;49.81
64792;BME280;51226;47.504;19.074;2023-03-01T17:39:01;100847.63;;;9.69;49.71
64792;BME280;51226;47.504;19.074;2023-03-01T17:42:04;100846.50;;;9.64;49.67
64792;BME280;51226;47.504;19.074;2023-03-01T17:45:08;100849.03;;;9.62;50.00
64792;BME280;51226;47.504;19.074;2023-03-01T17:48:11;100852.38;;;9.60;50.09
64792;BME280;51226;47.504;19.074;2023-03-01T17:51:13;100848.00;;;9.59;50.07
64792;BME280;51226;47.504;19.074;2023-03-01T17:54:16;100853.06;;;9.56;49.94
64792;BME280;51226;47.504;19.074;2023-03-01T17:57:19;100849.44;;;9.54;49.88
64792;BME280;51226;47.504;19.074;2023-03-01T18:00:22;100846.47;;;9.46;49.97
64792;BME280;51226;47.504;19.074;2023-03-01T18:03:25;100851.44;;;9.41;49.90
64792;BME280;51226;47.504;19.074;2023-03-01T18:06:28;100845.94;;;9.35;50.13
64792;BME280;51226;47.504;19.074;2023-03-01T18:09:32;100844.97;;;9.33;50.48
64792;BME280;51226;47.504;19.074;2023-03-01T18:12:35;100847.31;;;9.28;50.25